To NAV CANADA Home Page Login to a new session Search on AWWS site Feedback and Comments Disclaimer Vers la page française équivalente Tips FAQ What's new on the site To the Forecasts and Observations / NOTAM section To "File a Flight Plan" website Publications and other links Update of the User's profile FIC Telephone Numbers My Weather Data Folder Route Weather Data Regional Weather Data Local Weather Data To the Forecasts and Observations / NOTAM section
Request Generated 02/14/2016 at 01:35:44 UTC . Weather information available at that time is displayed.

METAR/TAF

SWIFT CURRENT/SK    (show WxCam)

SPECI CYYN 140126Z AUTO 28012KT 5SM BR OVC003 M02/M02 A2980 RMK
SLP132=
SPECI CYYN 140122Z AUTO 28012KT 5SM BR OVC005 M02/M02 A2980 RMK
SLP132=
METAR CYYN 140100Z AUTO 28013G19KT 9SM OVC005 M03/M03 A2981 RMK
SLP134=
METAR CYYN 140000Z AUTO 28016G21KT 9SM BKN007 OVC014 M04/M04 A2978
RMK SLP128=
SPECI CYYN 132347Z AUTO 29016G21KT 9SM BKN007 BKN012 BKN017 OVC023
M04/M04 A2978 RMK SLP127=
SPECI CYYN 132342Z AUTO 29018KT 8SM -SN BKN007 BKN018 OVC023 M04/M04
A2978 RMK SLP127=
SPECI CYYN 132335Z AUTO 29016KT 6SM -SN SCT007 BKN018 OVC023 M04/M04
A2978 RMK SLP127=
SPECI CYYN 132332Z AUTO 29017KT 6SM -SN BKN007 OVC021 M04/M04 A2978
RMK SLP126=
SPECI CYYN 132326Z AUTO 29018KT 4SM -SN BKN007 BKN010 OVC020 M04/M05
A2977 RMK SLP125=
SPECI CYYN 132316Z AUTO 29018KT 4SM -SN SCT007 OVC020 M04/M05 A2977
RMK SLP124=
SPECI CYYN 132312Z AUTO 29017KT 3SM -SN BKN007 OVC020 M05/M05 A2977
RMK SLP124=
SPECI CYYN 132309Z AUTO 29017KT 2 1/4SM -SN BKN007 OVC020 M05/M05
A2977 RMK SLP124=
SPECI CYYN 132302Z AUTO 29017KT 1 1/2SM -SN BKN007 OVC020 M05/M05
A2977 RMK SLP124=
METAR CYYN 132300Z AUTO 29017KT 1 1/2SM -SN SCT007 OVC020 M05/M05
A2977 RMK SLP124=

TAF AMD CYYN 140129Z 1401/1412 28012KT 6SM BR OVC005 TEMPO 1401/1404
2SM BR OVC003 PROB30 1401/1404 2SM -FZDZ BR
FM140400 27015KT P6SM FEW004
FM140900 26015KT P6SM SCT060
RMK FCST BASED ON AUTO OBS. NXT FCST BY 140600Z=
Your time UTC time
Weather data provided by Environment Canada and NAV CANADA